Photo de Laille
Rennes
Ciel dégagé
Metar : 2017/07/27 20:30 LFRN 272030Z AUTO 24008KT CAVOK 17/12 Q1013 NOSIG
Couverture nuageuse :
Pression de 29.91 inHg (1013 hPa)
Humidité : 73%
Température : 63°F (17°C)
Vent de WSW at 9 mph (15 km/h)
Visibilité : greater than 7 miles (10 km)
Nantes
Ciel dégagé
Metar : 2017/07/27 20:30 LFRS 272030Z AUTO 27006KT CAVOK 16/12 Q1014 NOSIG
Couverture nuageuse :
Traduc : Partly cloudy 700 ft
Pression de 29.94 inHg (1014 hPa)
Humidité : 77%
Température : 61°F (16°C)
Point de rosée : 54°F (12°C)
Vent de W at 7 mph (11 km/h)
Visibilité : greater than 7 miles (10 km)
Lannion
nuageux
Metar : 2017/07/27 20:30 LFRO 272030Z AUTO 24010KT 9999 BKN021 BKN029 BKN035 16/13 Q1013
Couverture nuageuse : Mostly Cloudy 2100 ft Mostly Cloudy 2900 ft Mostly Cloudy 3500 ft
Traduc : Partly cloudy 700 ft
Pression de 29.91 inHg (1013 hPa)
Humidité : 83%
Température : 61°F (16°C)
Point de rosée : 55°F (13°C)
Vent de WSW at 12 mph (19 km/h)
Visibilité : 6 miles (10 km)
Dinard
couvert
Metar : 2017/07/27 20:30 LFRD 272030Z AUTO 21003KT 9999 OVC037 17/13 Q1012 NOSIG
Couverture nuageuse : Overcast 3700 ft
Traduc : Partly cloudy 700 ft
Pression de 29.88 inHg (1012 hPa)
Humidité : 77%
Température : 63°F (17°C)
Point de rosée : 55°F (13°C)
Vent de SSW at 3 mph (6 km/h)
Visibilité : 6 miles (10 km)
Brest
couvert
Metar : 2017/07/27 20:30 LFRB 272030Z AUTO 25008KT 9999 BKN013 OVC062 16/14 Q1013 BECMG SCT022 SCT040
Couverture nuageuse : Mostly Cloudy 1300 ft Overcast 6200 ft
Traduc : Partly cloudy 700 ft
Pression de 29.91 inHg (1013 hPa)
Humidité : 88%
Température : 61°F (16°C)
Point de rosée : 57°F (14°C)
Vent de WSW at 9 mph (15 km/h)
Visibilité : 6 miles (10 km)
Quimper
nuageux
Metar : 2017/07/27 20:30 LFRQ 272030Z AUTO 26008KT 9999 BKN015 BKN028 BKN033 16/14 Q1014 NOSIG
Couverture nuageuse : Mostly Cloudy 1500 ft Mostly Cloudy 2800 ft Mostly Cloudy 3300 ft
Traduc : Partly cloudy 700 ft
Pression de 29.94 inHg (1014 hPa)
Humidité : 88%
Température : 61°F (16°C)
Point de rosée : 57°F (14°C)
Vent de W at 9 mph (15 km/h)
Visibilité : 6 miles (10 km)
St Nazaire
partiellement nuageux
Metar : 2017/07/27 20:30 LFRZ 272030Z AUTO 26008KT 9999 SCT023 17/13 Q1014 NOSIG
Couverture nuageuse : Partly Cloudy 2300 ft
Traduc : Partly cloudy 700 ft
Pression de 29.94 inHg (1014 hPa)
Humidité : 77%
Température : 63°F (17°C)
Point de rosée : 55°F (13°C)
Vent de W at 9 mph (15 km/h)
Visibilité : 6 miles (10 km)
St Brieuc
Ciel dégagé
Metar : 2017/07/27 20:30 LFRT 272030Z AUTO 26008KT CAVOK 16/11 Q1012
Couverture nuageuse :
Traduc : Partly cloudy 700 ft
Pression de 29.88 inHg (1012 hPa)
Humidité : 72%
Température : 61°F (16°C)
Point de rosée : 52°F (11°C)
Vent de W at 9 mph (15 km/h)
Visibilité : greater than 7 miles (10 km)
Lorient
nuageux
Metar : 2017/07/27 20:30 LFRH 272030Z AUTO 26009KT 9999 SCT019 SCT024 BKN060 16/14 Q1014 NOSIG
Couverture nuageuse : Partly Cloudy 1900 ft Partly Cloudy 2400 ft Mostly Cloudy 6000 ft
Traduc : Partly cloudy 700 ft
Pression de 29.94 inHg (1014 hPa)
Humidité : 88%
Température : 61°F (16°C)
Point de rosée : 57°F (14°C)
Vent de W at 10 mph (17 km/h)
Visibilité : 6 miles (10 km)
Vannes-Meucon
Ciel dégagé
Metar : 2017/07/27 20:30 LFRV 272030Z AUTO 25005KT 220V300 CAVOK 15/13 Q1014
Couverture nuageuse :
Traduc : Partly cloudy 700 ft
Pression de 29.94 inHg (1014 hPa)
Humidité : 88%
Température : 59°F (15°C)
Point de rosée : 55°F (13°C)
Vent de WSW at 6 mph (9 km/h)
Visibilité : greater than 7 miles (10 km)

 


   Weather Underground PWS IBRETAGN39      Weather Underground PWS IBRETAGN39Retour Météo-Laillé adhérent de Météo-Bretagne et d'Infoclimat. Données mises à jour en temps réel via Météolink Climatologie réalisée sous Wswin et GraphWeather.

Affichage prévisions météo de WeatherUnderground via script PHP de Saratoga.

Copyright 2012-2017